Archival Weather

Randolph Afb

Universal City, Texas (KRND)

Report from: Monday, September 26, 2022 6:55 PM CDT
Current time: Saturday, February 4, 2023 10:36 PM CST

Current weather
Weather history
Weather forecast

Temperature32.2°C (90.0°F)
Heat index30.1°C (86.1°F)
Dew point4.9°C (40.8°F)
Winds 7 kts (3.6 m/s, 8.1 mph) Northeast (40°)
Visibility10 mi. (16.1 km)
Clouds Sky clear
Altimeter29.97 in.Hg (1015 mB)
Relative humidity18 %
Density altitude2,038 ft. (621 m)
Sea-level pressure101.4 kPa (1014 mB, 29.94 in.Hg)
Max temp last 6 hours34.9°C (94.8°F)
Min temp last 6 hours32.2°C (90.0°F)
Remarks Fully automated report
Automated weather observing station with precipitation discriminator
Pressure rising more quickly
Flight conditions Visual Meteorological Conditions
Raw dataKRND 262355Z AUTO 04007KT 10SM CLR 32/05 A2997 RMK AO2 SLP140 T03220049 10349 20322 53002
An unhandled exception has occurred. See browser dev tools for details. Reload 🗙